sensor_id;sensor_type;location;lat;lon;timestamp;P1;durP1;ratioP1;P2;durP2;ratioP2
51578;SDS011;47998;53.242;6.386;2022-08-11T00:01:35;19.15;;;10.40;;
51578;SDS011;47998;53.242;6.386;2022-08-11T00:04:02;14.73;;;11.02;;
51578;SDS011;47998;53.242;6.386;2022-08-11T00:06:34;19.08;;;12.75;;
51578;SDS011;47998;53.242;6.386;2022-08-11T00:09:02;15.73;;;12.18;;
51578;SDS011;47998;53.242;6.386;2022-08-11T00:11:31;15.32;;;11.57;;
51578;SDS011;47998;53.242;6.386;2022-08-11T00:14:03;19.45;;;11.82;;
51578;SDS011;47998;53.242;6.386;2022-08-11T00:16:36;15.10;;;11.82;;
51578;SDS011;47998;53.242;6.386;2022-08-11T00:19:03;15.63;;;11.20;;
51578;SDS011;47998;53.242;6.386;2022-08-11T00:21:29;14.77;;;11.73;;
51578;SDS011;47998;53.242;6.386;2022-08-11T00:23:57;15.95;;;11.93;;
51578;SDS011;47998;53.242;6.386;2022-08-11T00:26:26;14.57;;;10.82;;
51578;SDS011;47998;53.242;6.386;2022-08-11T00:28:52;14.05;;;10.43;;
51578;SDS011;47998;53.242;6.386;2022-08-11T00:31:29;15.50;;;11.18;;
51578;SDS011;47998;53.242;6.386;2022-08-11T00:33:56;15.70;;;11.02;;
51578;SDS011;47998;53.242;6.386;2022-08-11T00:36:48;15.68;;;10.73;;
51578;SDS011;47998;53.242;6.386;2022-08-11T00:39:16;17.23;;;10.00;;
51578;SDS011;47998;53.242;6.386;2022-08-11T00:41:47;17.10;;;10.68;;
51578;SDS011;47998;53.242;6.386;2022-08-11T00:49:50;15.50;;;11.15;;
51578;SDS011;47998;53.242;6.386;2022-08-11T00:55:51;17.48;;;10.90;;
51578;SDS011;47998;53.242;6.386;2022-08-11T01:07:17;13.25;;;9.95;;
51578;SDS011;47998;53.242;6.386;2022-08-11T01:24:49;15.00;;;10.10;;
51578;SDS011;47998;53.242;6.386;2022-08-11T01:58:48;16.30;;;10.88;;
51578;SDS011;47998;53.242;6.386;2022-08-11T02:07:01;23.58;;;13.10;;
51578;SDS011;47998;53.242;6.386;2022-08-11T02:15:42;20.20;;;12.70;;
51578;SDS011;47998;53.242;6.386;2022-08-11T02:18:22;14.32;;;11.27;;
51578;SDS011;47998;53.242;6.386;2022-08-11T02:21:18;18.17;;;12.00;;
51578;SDS011;47998;53.242;6.386;2022-08-11T02:24:23;20.23;;;12.18;;
51578;SDS011;47998;53.242;6.386;2022-08-11T02:27:05;20.77;;;11.77;;
51578;SDS011;47998;53.242;6.386;2022-08-11T02:29:43;18.73;;;11.85;;
51578;SDS011;47998;53.242;6.386;2022-08-11T02:35:18;19.08;;;13.30;;
51578;SDS011;47998;53.242;6.386;2022-08-11T02:41:23;12.48;;;8.43;;
51578;SDS011;47998;53.242;6.386;2022-08-11T02:50:29;6.88;;;4.30;;
51578;SDS011;47998;53.242;6.386;2022-08-11T02:53:05;7.88;;;5.20;;
51578;SDS011;47998;53.242;6.386;2022-08-11T02:56:01;23.90;;;6.90;;
51578;SDS011;47998;53.242;6.386;2022-08-11T02:58:35;6.32;;;5.07;;
51578;SDS011;47998;53.242;6.386;2022-08-11T03:01:44;7.50;;;6.22;;
51578;SDS011;47998;53.242;6.386;2022-08-11T03:19:52;137.00;;;10.83;;
51578;SDS011;47998;53.242;6.386;2022-08-11T03:22:48;5.20;;;4.60;;
51578;SDS011;47998;53.242;6.386;2022-08-11T03:25:25;8.32;;;5.90;;
51578;SDS011;47998;53.242;6.386;2022-08-11T03:28:11;16.90;;;10.27;;
51578;SDS011;47998;53.242;6.386;2022-08-11T03:33:30;16.05;;;11.25;;
51578;SDS011;47998;53.242;6.386;2022-08-11T03:41:52;35.25;;;21.60;;
51578;SDS011;47998;53.242;6.386;2022-08-11T03:44:40;37.95;;;23.45;;
51578;SDS011;47998;53.242;6.386;2022-08-11T03:47:29;38.28;;;23.40;;
51578;SDS011;47998;53.242;6.386;2022-08-11T03:50:06;37.92;;;21.80;;
51578;SDS011;47998;53.242;6.386;2022-08-11T03:58:41;43.47;;;24.10;;
51578;SDS011;47998;53.242;6.386;2022-08-11T04:21:08;909.80;;;49.35;;
51578;SDS011;47998;53.242;6.386;2022-08-11T04:27:18;377.73;;;18.38;;
51578;SDS011;47998;53.242;6.386;2022-08-11T04:42:05;22.27;;;13.88;;
51578;SDS011;47998;53.242;6.386;2022-08-11T04:45:24;22.30;;;14.43;;
51578;SDS011;47998;53.242;6.386;2022-08-11T04:48:25;36.67;;;22.45;;
51578;SDS011;47998;53.242;6.386;2022-08-11T04:57:36;60.35;;;34.05;;
51578;SDS011;47998;53.242;6.386;2022-08-11T05:00:48;68.72;;;34.80;;
51578;SDS011;47998;53.242;6.386;2022-08-11T05:15:30;59.55;;;32.85;;
51578;SDS011;47998;53.242;6.386;2022-08-11T05:18:25;51.40;;;29.95;;
51578;SDS011;47998;53.242;6.386;2022-08-11T05:21:12;54.70;;;29.85;;
51578;SDS011;47998;53.242;6.386;2022-08-11T05:24:02;43.63;;;27.50;;
51578;SDS011;47998;53.242;6.386;2022-08-11T05:26:51;45.50;;;27.35;;
51578;SDS011;47998;53.242;6.386;2022-08-11T05:29:56;42.47;;;25.50;;
51578;SDS011;47998;53.242;6.386;2022-08-11T05:32:45;42.38;;;25.27;;
51578;SDS011;47998;53.242;6.386;2022-08-11T05:35:40;42.47;;;24.45;;
51578;SDS011;47998;53.242;6.386;2022-08-11T05:38:15;33.75;;;21.63;;
51578;SDS011;47998;53.242;6.386;2022-08-11T05:41:03;34.15;;;22.98;;
51578;SDS011;47998;53.242;6.386;2022-08-11T05:43:49;29.20;;;19.67;;
51578;SDS011;47998;53.242;6.386;2022-08-11T05:46:38;30.30;;;19.88;;
51578;SDS011;47998;53.242;6.386;2022-08-11T05:49:28;28.40;;;18.63;;
51578;SDS011;47998;53.242;6.386;2022-08-11T05:52:17;23.88;;;17.33;;
51578;SDS011;47998;53.242;6.386;2022-08-11T05:55:06;26.08;;;17.05;;
51578;SDS011;47998;53.242;6.386;2022-08-11T05:57:55;20.58;;;14.77;;
51578;SDS011;47998;53.242;6.386;2022-08-11T06:00:24;17.55;;;14.80;;
51578;SDS011;47998;53.242;6.386;2022-08-11T06:02:52;20.80;;;14.50;;
51578;SDS011;47998;53.242;6.386;2022-08-11T06:05:20;17.05;;;12.60;;
51578;SDS011;47998;53.242;6.386;2022-08-11T06:07:47;14.65;;;11.73;;
51578;SDS011;47998;53.242;6.386;2022-08-11T06:10:15;14.57;;;11.88;;
51578;SDS011;47998;53.242;6.386;2022-08-11T06:13:03;18.60;;;10.82;;
51578;SDS011;47998;53.242;6.386;2022-08-11T06:15:32;11.70;;;10.43;;
51578;SDS011;47998;53.242;6.386;2022-08-11T06:18:08;12.60;;;9.52;;
51578;SDS011;47998;53.242;6.386;2022-08-11T06:20:45;11.30;;;8.77;;
51578;SDS011;47998;53.242;6.386;2022-08-11T06:23:19;14.77;;;8.68;;
51578;SDS011;47998;53.242;6.386;2022-08-11T06:25:49;8.10;;;7.30;;
51578;SDS011;47998;53.242;6.386;2022-08-11T06:28:17;13.23;;;7.72;;
51578;SDS011;47998;53.242;6.386;2022-08-11T06:30:45;10.43;;;7.45;;
51578;SDS011;47998;53.242;6.386;2022-08-11T06:33:57;11.60;;;6.55;;
51578;SDS011;47998;53.242;6.386;2022-08-11T06:41:33;11.32;;;7.43;;
51578;SDS011;47998;53.242;6.386;2022-08-11T06:46:42;25.92;;;6.10;;
51578;SDS011;47998;53.242;6.386;2022-08-11T06:49:12;7.93;;;5.07;;
51578;SDS011;47998;53.242;6.386;2022-08-11T06:52:03;8.88;;;5.55;;
51578;SDS011;47998;53.242;6.386;2022-08-11T06:54:32;7.43;;;6.05;;
51578;SDS011;47998;53.242;6.386;2022-08-11T06:57:00;11.15;;;6.55;;
51578;SDS011;47998;53.242;6.386;2022-08-11T06:59:48;8.18;;;5.75;;
51578;SDS011;47998;53.242;6.386;2022-08-11T07:02:36;7.22;;;5.60;;
51578;SDS011;47998;53.242;6.386;2022-08-11T07:05:12;7.20;;;5.60;;
51578;SDS011;47998;53.242;6.386;2022-08-11T07:13:53;6.53;;;5.65;;
51578;SDS011;47998;53.242;6.386;2022-08-11T07:16:42;10.88;;;6.20;;
51578;SDS011;47998;53.242;6.386;2022-08-11T07:19:10;12.50;;;7.38;;
51578;SDS011;47998;53.242;6.386;2022-08-11T07:21:56;8.23;;;5.18;;
51578;SDS011;47998;53.242;6.386;2022-08-11T07:24:48;6.97;;;5.60;;
51578;SDS011;47998;53.242;6.386;2022-08-11T07:27:47;9.25;;;5.30;;
51578;SDS011;47998;53.242;6.386;2022-08-11T07:30:39;6.28;;;5.00;;
51578;SDS011;47998;53.242;6.386;2022-08-11T07:33:06;5.57;;;4.30;;
51578;SDS011;47998;53.242;6.386;2022-08-11T07:35:46;5.15;;;4.63;;
51578;SDS011;47998;53.242;6.386;2022-08-11T07:40:45;10.00;;;4.03;;
51578;SDS011;47998;53.242;6.386;2022-08-11T07:43:12;9.63;;;5.32;;
51578;SDS011;47998;53.242;6.386;2022-08-11T07:45:41;9.13;;;4.13;;
51578;SDS011;47998;53.242;6.386;2022-08-11T07:48:27;7.20;;;4.30;;
51578;SDS011;47998;53.242;6.386;2022-08-11T07:51:13;6.38;;;4.40;;
51578;SDS011;47998;53.242;6.386;2022-08-11T07:54:05;7.40;;;3.20;;
51578;SDS011;47998;53.242;6.386;2022-08-11T07:56:33;6.47;;;4.28;;
51578;SDS011;47998;53.242;6.386;2022-08-11T07:59:01;6.45;;;3.08;;
51578;SDS011;47998;53.242;6.386;2022-08-11T08:01:46;5.28;;;3.35;;
51578;SDS011;47998;53.242;6.386;2022-08-11T08:04:31;5.50;;;3.30;;
51578;SDS011;47998;53.242;6.386;2022-08-11T08:07:17;9.82;;;3.95;;
51578;SDS011;47998;53.242;6.386;2022-08-11T08:10:07;8.60;;;3.42;;
51578;SDS011;47998;53.242;6.386;2022-08-11T08:12:53;7.60;;;4.97;;
51578;SDS011;47998;53.242;6.386;2022-08-11T08:15:38;8.25;;;4.22;;
51578;SDS011;47998;53.242;6.386;2022-08-11T08:18:24;6.32;;;2.80;;
51578;SDS011;47998;53.242;6.386;2022-08-11T08:20:50;6.38;;;2.90;;
51578;SDS011;47998;53.242;6.386;2022-08-11T08:23:19;5.55;;;2.95;;
51578;SDS011;47998;53.242;6.386;2022-08-11T08:25:59;7.65;;;2.47;;
51578;SDS011;47998;53.242;6.386;2022-08-11T08:28:50;3.67;;;2.30;;
51578;SDS011;47998;53.242;6.386;2022-08-11T08:31:17;4.28;;;1.63;;
51578;SDS011;47998;53.242;6.386;2022-08-11T08:33:43;8.63;;;2.20;;
51578;SDS011;47998;53.242;6.386;2022-08-11T08:36:09;9.07;;;2.47;;
51578;SDS011;47998;53.242;6.386;2022-08-11T08:38:46;7.65;;;1.60;;
51578;SDS011;47998;53.242;6.386;2022-08-11T08:41:13;4.43;;;1.77;;
51578;SDS011;47998;53.242;6.386;2022-08-11T08:43:44;5.78;;;1.33;;
51578;SDS011;47998;53.242;6.386;2022-08-11T08:46:16;6.28;;;1.40;;
51578;SDS011;47998;53.242;6.386;2022-08-11T08:48:46;3.75;;;1.40;;
51578;SDS011;47998;53.242;6.386;2022-08-11T08:51:13;3.67;;;1.73;;
51578;SDS011;47998;53.242;6.386;2022-08-11T08:54:00;5.88;;;1.50;;
51578;SDS011;47998;53.242;6.386;2022-08-11T08:56:31;4.07;;;1.67;;
51578;SDS011;47998;53.242;6.386;2022-08-11T08:59:02;8.95;;;1.52;;
51578;SDS011;47998;53.242;6.386;2022-08-11T09:01:35;6.65;;;3.25;;
51578;SDS011;47998;53.242;6.386;2022-08-11T09:04:22;6.68;;;2.03;;
51578;SDS011;47998;53.242;6.386;2022-08-11T09:06:49;5.22;;;1.15;;
51578;SDS011;47998;53.242;6.386;2022-08-11T09:09:15;6.05;;;1.15;;
51578;SDS011;47998;53.242;6.386;2022-08-11T09:11:42;5.13;;;0.93;;
51578;SDS011;47998;53.242;6.386;2022-08-11T09:14:22;1.52;;;1.00;;
51578;SDS011;47998;53.242;6.386;2022-08-11T09:16:49;13.02;;;1.52;;
51578;SDS011;47998;53.242;6.386;2022-08-11T09:19:17;4.68;;;1.45;;
51578;SDS011;47998;53.242;6.386;2022-08-11T09:21:45;3.95;;;1.42;;
51578;SDS011;47998;53.242;6.386;2022-08-11T09:24:35;4.32;;;1.08;;
51578;SDS011;47998;53.242;6.386;2022-08-11T09:27:21;4.55;;;1.38;;
51578;SDS011;47998;53.242;6.386;2022-08-11T09:29:48;3.67;;;1.20;;
51578;SDS011;47998;53.242;6.386;2022-08-11T09:32:18;6.60;;;1.35;;
51578;SDS011;47998;53.242;6.386;2022-08-11T09:34:45;5.18;;;1.02;;
51578;SDS011;47998;53.242;6.386;2022-08-11T09:37:11;3.53;;;1.40;;
51578;SDS011;47998;53.242;6.386;2022-08-11T09:39:56;3.75;;;1.02;;
51578;SDS011;47998;53.242;6.386;2022-08-11T09:42:42;4.57;;;1.00;;
51578;SDS011;47998;53.242;6.386;2022-08-11T09:45:28;6.35;;;1.10;;
51578;SDS011;47998;53.242;6.386;2022-08-11T09:47:55;2.95;;;1.35;;
51578;SDS011;47998;53.242;6.386;2022-08-11T09:50:23;4.18;;;1.00;;
51578;SDS011;47998;53.242;6.386;2022-08-11T09:52:49;4.60;;;1.30;;
51578;SDS011;47998;53.242;6.386;2022-08-11T09:55:15;4.63;;;0.90;;
51578;SDS011;47998;53.242;6.386;2022-08-11T09:57:45;2.88;;;1.00;;
51578;SDS011;47998;53.242;6.386;2022-08-11T10:00:33;5.47;;;1.38;;
51578;SDS011;47998;53.242;6.386;2022-08-11T10:03:08;2.80;;;1.13;;
51578;SDS011;47998;53.242;6.386;2022-08-11T10:05:45;3.70;;;1.10;;
51578;SDS011;47998;53.242;6.386;2022-08-11T10:08:32;3.55;;;1.00;;
51578;SDS011;47998;53.242;6.386;2022-08-11T10:11:03;3.00;;;1.00;;
51578;SDS011;47998;53.242;6.386;2022-08-11T10:13:33;1.90;;;1.15;;
51578;SDS011;47998;53.242;6.386;2022-08-11T10:16:25;2.40;;;1.10;;
51578;SDS011;47998;53.242;6.386;2022-08-11T10:18:54;3.47;;;1.00;;
51578;SDS011;47998;53.242;6.386;2022-08-11T10:23:52;6.78;;;1.30;;
51578;SDS011;47998;53.242;6.386;2022-08-11T10:26:38;3.72;;;0.95;;
51578;SDS011;47998;53.242;6.386;2022-08-11T10:29:20;3.63;;;0.88;;
51578;SDS011;47998;53.242;6.386;2022-08-11T10:32:06;1.77;;;0.98;;
51578;SDS011;47998;53.242;6.386;2022-08-11T10:34:51;4.05;;;1.05;;
51578;SDS011;47998;53.242;6.386;2022-08-11T10:37:19;4.47;;;1.35;;
51578;SDS011;47998;53.242;6.386;2022-08-11T10:39:47;3.58;;;1.15;;
51578;SDS011;47998;53.242;6.386;2022-08-11T10:42:13;5.85;;;1.40;;
51578;SDS011;47998;53.242;6.386;2022-08-11T10:44:58;2.33;;;0.95;;
51578;SDS011;47998;53.242;6.386;2022-08-11T10:47:27;2.35;;;0.80;;
51578;SDS011;47998;53.242;6.386;2022-08-11T10:50:09;4.47;;;1.30;;
51578;SDS011;47998;53.242;6.386;2022-08-11T10:52:56;4.35;;;1.10;;
51578;SDS011;47998;53.242;6.386;2022-08-11T10:55:43;2.95;;;1.08;;
51578;SDS011;47998;53.242;6.386;2022-08-11T10:58:28;1.85;;;0.95;;
51578;SDS011;47998;53.242;6.386;2022-08-11T11:01:13;5.47;;;1.10;;
51578;SDS011;47998;53.242;6.386;2022-08-11T11:03:41;5.85;;;1.23;;
51578;SDS011;47998;53.242;6.386;2022-08-11T11:06:15;5.97;;;0.80;;
51578;SDS011;47998;53.242;6.386;2022-08-11T11:11:47;6.10;;;1.10;;
51578;SDS011;47998;53.242;6.386;2022-08-11T11:14:34;4.60;;;1.25;;
51578;SDS011;47998;53.242;6.386;2022-08-11T11:17:29;3.83;;;0.80;;
51578;SDS011;47998;53.242;6.386;2022-08-11T11:20:28;3.53;;;1.25;;
51578;SDS011;47998;53.242;6.386;2022-08-11T11:23:12;3.28;;;2.25;;
51578;SDS011;47998;53.242;6.386;2022-08-11T11:25:54;6.43;;;1.27;;
51578;SDS011;47998;53.242;6.386;2022-08-11T11:31:49;3.40;;;1.20;;
51578;SDS011;47998;53.242;6.386;2022-08-11T11:36:56;4.82;;;0.85;;
51578;SDS011;47998;53.242;6.386;2022-08-11T11:39:26;3.75;;;1.10;;
51578;SDS011;47998;53.242;6.386;2022-08-11T11:41:53;3.00;;;0.90;;
51578;SDS011;47998;53.242;6.386;2022-08-11T11:44:22;2.22;;;1.10;;
51578;SDS011;47998;53.242;6.386;2022-08-11T11:46:49;1.65;;;0.70;;
51578;SDS011;47998;53.242;6.386;2022-08-11T11:49:16;3.67;;;1.00;;
51578;SDS011;47998;53.242;6.386;2022-08-11T11:51:46;3.38;;;0.80;;
51578;SDS011;47998;53.242;6.386;2022-08-11T11:54:16;1.73;;;0.88;;
51578;SDS011;47998;53.242;6.386;2022-08-11T11:56:47;5.32;;;1.58;;
51578;SDS011;47998;53.242;6.386;2022-08-11T11:59:17;6.38;;;0.82;;
51578;SDS011;47998;53.242;6.386;2022-08-11T12:02:05;2.28;;;0.80;;
51578;SDS011;47998;53.242;6.386;2022-08-11T12:04:41;2.72;;;0.90;;
51578;SDS011;47998;53.242;6.386;2022-08-11T12:07:11;6.25;;;0.93;;
51578;SDS011;47998;53.242;6.386;2022-08-11T12:09:57;3.53;;;0.77;;
51578;SDS011;47998;53.242;6.386;2022-08-11T12:12:23;1.55;;;1.05;;
51578;SDS011;47998;53.242;6.386;2022-08-11T12:15:08;1.40;;;0.90;;
51578;SDS011;47998;53.242;6.386;2022-08-11T12:17:35;1.48;;;0.70;;
51578;SDS011;47998;53.242;6.386;2022-08-11T12:20:02;2.45;;;0.95;;
51578;SDS011;47998;53.242;6.386;2022-08-11T12:22:29;2.00;;;0.90;;
51578;SDS011;47998;53.242;6.386;2022-08-11T12:25:15;5.05;;;1.05;;
51578;SDS011;47998;53.242;6.386;2022-08-11T12:28:00;2.03;;;1.20;;
51578;SDS011;47998;53.242;6.386;2022-08-11T12:30:27;2.55;;;1.55;;
51578;SDS011;47998;53.242;6.386;2022-08-11T12:32:53;2.05;;;1.33;;
51578;SDS011;47998;53.242;6.386;2022-08-11T12:35:19;1.52;;;0.95;;
51578;SDS011;47998;53.242;6.386;2022-08-11T12:37:53;7.78;;;1.00;;
51578;SDS011;47998;53.242;6.386;2022-08-11T12:40:24;2.97;;;0.85;;
51578;SDS011;47998;53.242;6.386;2022-08-11T12:43:12;2.47;;;0.80;;
51578;SDS011;47998;53.242;6.386;2022-08-11T12:45:59;3.53;;;0.77;;
51578;SDS011;47998;53.242;6.386;2022-08-11T12:48:30;1.30;;;0.80;;
51578;SDS011;47998;53.242;6.386;2022-08-11T12:51:22;2.53;;;0.70;;
51578;SDS011;47998;53.242;6.386;2022-08-11T12:54:12;2.40;;;1.00;;
51578;SDS011;47998;53.242;6.386;2022-08-11T12:56:44;3.40;;;0.60;;
51578;SDS011;47998;53.242;6.386;2022-08-11T12:59:32;7.40;;;0.70;;
51578;SDS011;47998;53.242;6.386;2022-08-11T13:02:21;2.42;;;0.80;;
51578;SDS011;47998;53.242;6.386;2022-08-11T13:05:07;3.22;;;0.95;;
51578;SDS011;47998;53.242;6.386;2022-08-11T13:07:35;3.97;;;0.80;;
51578;SDS011;47998;53.242;6.386;2022-08-11T13:10:05;2.70;;;0.75;;
51578;SDS011;47998;53.242;6.386;2022-08-11T13:12:33;4.63;;;1.00;;
51578;SDS011;47998;53.242;6.386;2022-08-11T13:15:13;4.03;;;0.82;;
51578;SDS011;47998;53.242;6.386;2022-08-11T13:17:41;6.45;;;2.75;;
51578;SDS011;47998;53.242;6.386;2022-08-11T13:20:09;2.08;;;0.90;;
51578;SDS011;47998;53.242;6.386;2022-08-11T13:22:38;4.70;;;0.85;;
51578;SDS011;47998;53.242;6.386;2022-08-11T13:25:10;2.47;;;0.70;;
51578;SDS011;47998;53.242;6.386;2022-08-11T13:27:37;1.45;;;0.55;;
51578;SDS011;47998;53.242;6.386;2022-08-11T13:30:04;1.17;;;0.60;;
51578;SDS011;47998;53.242;6.386;2022-08-11T13:32:49;3.03;;;0.90;;
51578;SDS011;47998;53.242;6.386;2022-08-11T13:35:16;1.27;;;0.60;;
51578;SDS011;47998;53.242;6.386;2022-08-11T13:37:44;3.45;;;0.82;;
51578;SDS011;47998;53.242;6.386;2022-08-11T13:40:11;1.83;;;0.80;;
51578;SDS011;47998;53.242;6.386;2022-08-11T13:42:40;2.03;;;0.70;;
51578;SDS011;47998;53.242;6.386;2022-08-11T13:45:08;3.38;;;0.88;;
51578;SDS011;47998;53.242;6.386;2022-08-11T13:47:35;4.15;;;0.88;;
51578;SDS011;47998;53.242;6.386;2022-08-11T13:50:03;4.00;;;0.80;;
51578;SDS011;47998;53.242;6.386;2022-08-11T13:52:33;6.43;;;0.80;;
51578;SDS011;47998;53.242;6.386;2022-08-11T13:55:03;2.17;;;0.90;;
51578;SDS011;47998;53.242;6.386;2022-08-11T13:57:34;5.18;;;0.90;;
51578;SDS011;47998;53.242;6.386;2022-08-11T14:00:03;2.00;;;0.70;;
51578;SDS011;47998;53.242;6.386;2022-08-11T14:02:42;3.65;;;0.70;;
51578;SDS011;47998;53.242;6.386;2022-08-11T14:05:17;4.22;;;0.63;;
51578;SDS011;47998;53.242;6.386;2022-08-11T14:07:47;1.30;;;0.60;;
51578;SDS011;47998;53.242;6.386;2022-08-11T14:10:17;1.58;;;0.88;;
51578;SDS011;47998;53.242;6.386;2022-08-11T14:12:56;3.50;;;0.70;;
51578;SDS011;47998;53.242;6.386;2022-08-11T14:15:44;1.60;;;0.75;;
51578;SDS011;47998;53.242;6.386;2022-08-11T14:20:41;1.30;;;0.60;;
51578;SDS011;47998;53.242;6.386;2022-08-11T14:23:27;4.15;;;0.90;;
51578;SDS011;47998;53.242;6.386;2022-08-11T14:25:59;1.13;;;0.60;;
51578;SDS011;47998;53.242;6.386;2022-08-11T14:28:44;3.08;;;0.70;;
51578;SDS011;47998;53.242;6.386;2022-08-11T14:31:10;2.97;;;1.33;;
51578;SDS011;47998;53.242;6.386;2022-08-11T14:33:40;3.92;;;0.70;;
51578;SDS011;47998;53.242;6.386;2022-08-11T14:36:07;5.43;;;1.02;;
51578;SDS011;47998;53.242;6.386;2022-08-11T14:38:35;6.28;;;1.20;;
51578;SDS011;47998;53.242;6.386;2022-08-11T14:41:03;5.95;;;1.23;;
51578;SDS011;47998;53.242;6.386;2022-08-11T14:43:49;4.10;;;1.00;;
51578;SDS011;47998;53.242;6.386;2022-08-11T14:46:34;10.23;;;1.20;;
51578;SDS011;47998;53.242;6.386;2022-08-11T14:49:20;2.72;;;0.88;;
51578;SDS011;47998;53.242;6.386;2022-08-11T14:51:47;3.55;;;1.05;;
51578;SDS011;47998;53.242;6.386;2022-08-11T14:54:14;6.25;;;1.40;;
51578;SDS011;47998;53.242;6.386;2022-08-11T14:56:59;1.83;;;1.00;;
51578;SDS011;47998;53.242;6.386;2022-08-11T14:59:27;4.50;;;1.17;;
51578;SDS011;47998;53.242;6.386;2022-08-11T15:01:54;4.50;;;1.00;;
51578;SDS011;47998;53.242;6.386;2022-08-11T15:04:38;4.78;;;0.98;;
51578;SDS011;47998;53.242;6.386;2022-08-11T15:07:04;2.85;;;0.93;;
51578;SDS011;47998;53.242;6.386;2022-08-11T15:09:30;2.75;;;0.70;;
51578;SDS011;47998;53.242;6.386;2022-08-11T15:11:57;3.38;;;1.10;;
51578;SDS011;47998;53.242;6.386;2022-08-11T15:14:34;1.75;;;1.10;;
51578;SDS011;47998;53.242;6.386;2022-08-11T15:17:18;3.28;;;0.98;;
51578;SDS011;47998;53.242;6.386;2022-08-11T15:19:45;2.95;;;0.88;;
51578;SDS011;47998;53.242;6.386;2022-08-11T15:22:32;6.10;;;0.80;;
51578;SDS011;47998;53.242;6.386;2022-08-11T15:25:16;4.68;;;0.90;;
51578;SDS011;47998;53.242;6.386;2022-08-11T15:27:44;3.45;;;0.82;;
51578;SDS011;47998;53.242;6.386;2022-08-11T15:30:31;4.50;;;1.23;;
51578;SDS011;47998;53.242;6.386;2022-08-11T15:33:17;5.40;;;1.08;;
51578;SDS011;47998;53.242;6.386;2022-08-11T15:36:04;2.30;;;1.17;;
51578;SDS011;47998;53.242;6.386;2022-08-11T15:38:53;4.35;;;0.90;;
51578;SDS011;47998;53.242;6.386;2022-08-11T15:41:25;1.98;;;0.70;;
51578;SDS011;47998;53.242;6.386;2022-08-11T15:44:26;3.13;;;1.00;;
51578;SDS011;47998;53.242;6.386;2022-08-11T15:47:14;3.33;;;0.90;;
51578;SDS011;47998;53.242;6.386;2022-08-11T15:49:42;2.53;;;0.80;;
51578;SDS011;47998;53.242;6.386;2022-08-11T15:52:15;2.17;;;0.88;;
51578;SDS011;47998;53.242;6.386;2022-08-11T15:54:45;5.47;;;1.20;;
51578;SDS011;47998;53.242;6.386;2022-08-11T15:57:12;2.55;;;1.00;;
51578;SDS011;47998;53.242;6.386;2022-08-11T15:59:58;2.47;;;0.88;;
51578;SDS011;47998;53.242;6.386;2022-08-11T16:02:48;7.15;;;1.35;;
51578;SDS011;47998;53.242;6.386;2022-08-11T16:05:19;2.03;;;0.80;;
51578;SDS011;47998;53.242;6.386;2022-08-11T16:07:46;4.80;;;0.93;;
51578;SDS011;47998;53.242;6.386;2022-08-11T16:10:16;1.88;;;0.80;;
51578;SDS011;47998;53.242;6.386;2022-08-11T16:15:46;3.03;;;1.30;;
51578;SDS011;47998;53.242;6.386;2022-08-11T16:18:53;5.22;;;0.90;;
51578;SDS011;47998;53.242;6.386;2022-08-11T16:23:52;3.15;;;1.00;;
51578;SDS011;47998;53.242;6.386;2022-08-11T16:26:21;4.03;;;1.65;;
51578;SDS011;47998;53.242;6.386;2022-08-11T16:28:51;7.75;;;3.45;;
51578;SDS011;47998;53.242;6.386;2022-08-11T16:33:46;4.10;;;0.80;;
51578;SDS011;47998;53.242;6.386;2022-08-11T16:36:14;2.20;;;0.90;;
51578;SDS011;47998;53.242;6.386;2022-08-11T16:38:59;5.45;;;0.93;;
51578;SDS011;47998;53.242;6.386;2022-08-11T16:41:28;3.38;;;0.95;;
51578;SDS011;47998;53.242;6.386;2022-08-11T16:44:14;1.83;;;1.20;;
51578;SDS011;47998;53.242;6.386;2022-08-11T16:47:00;3.08;;;1.15;;
51578;SDS011;47998;53.242;6.386;2022-08-11T16:49:35;3.00;;;0.80;;
51578;SDS011;47998;53.242;6.386;2022-08-11T16:52:04;3.63;;;0.90;;
51578;SDS011;47998;53.242;6.386;2022-08-11T16:54:35;3.17;;;0.98;;
51578;SDS011;47998;53.242;6.386;2022-08-11T16:57:04;3.15;;;0.82;;
51578;SDS011;47998;53.242;6.386;2022-08-11T16:59:53;1.20;;;0.80;;
51578;SDS011;47998;53.242;6.386;2022-08-11T17:02:21;4.53;;;1.00;;
51578;SDS011;47998;53.242;6.386;2022-08-11T17:05:09;3.55;;;0.80;;
51578;SDS011;47998;53.242;6.386;2022-08-11T17:07:56;4.00;;;1.10;;
51578;SDS011;47998;53.242;6.386;2022-08-11T17:10:56;8.32;;;2.30;;
51578;SDS011;47998;53.242;6.386;2022-08-11T17:13:50;3.97;;;1.10;;
51578;SDS011;47998;53.242;6.386;2022-08-11T17:16:23;3.08;;;0.85;;
51578;SDS011;47998;53.242;6.386;2022-08-11T17:19:04;3.67;;;0.93;;
51578;SDS011;47998;53.242;6.386;2022-08-11T17:21:40;9.05;;;1.08;;
51578;SDS011;47998;53.242;6.386;2022-08-11T17:24:28;3.25;;;1.02;;
51578;SDS011;47998;53.242;6.386;2022-08-11T17:26:59;2.72;;;1.00;;
51578;SDS011;47998;53.242;6.386;2022-08-11T17:32:08;4.63;;;1.40;;
51578;SDS011;47998;53.242;6.386;2022-08-11T17:34:58;2.33;;;1.02;;
51578;SDS011;47998;53.242;6.386;2022-08-11T17:37:45;4.70;;;1.25;;
51578;SDS011;47998;53.242;6.386;2022-08-11T17:40:13;4.05;;;1.15;;
51578;SDS011;47998;53.242;6.386;2022-08-11T17:42:46;2.97;;;1.25;;
51578;SDS011;47998;53.242;6.386;2022-08-11T17:45:47;7.85;;;1.73;;
51578;SDS011;47998;53.242;6.386;2022-08-11T17:48:33;6.90;;;1.60;;
51578;SDS011;47998;53.242;6.386;2022-08-11T17:51:06;3.30;;;1.63;;
51578;SDS011;47998;53.242;6.386;2022-08-11T17:53:39;3.55;;;1.27;;
51578;SDS011;47998;53.242;6.386;2022-08-11T17:56:26;3.63;;;1.40;;
51578;SDS011;47998;53.242;6.386;2022-08-11T17:59:13;6.38;;;1.20;;
51578;SDS011;47998;53.242;6.386;2022-08-11T18:01:59;2.03;;;1.05;;
51578;SDS011;47998;53.242;6.386;2022-08-11T18:04:48;3.05;;;1.60;;
51578;SDS011;47998;53.242;6.386;2022-08-11T18:07:16;6.80;;;1.58;;
51578;SDS011;47998;53.242;6.386;2022-08-11T18:10:05;4.10;;;1.60;;
51578;SDS011;47998;53.242;6.386;2022-08-11T18:12:51;4.35;;;1.45;;
51578;SDS011;47998;53.242;6.386;2022-08-11T18:15:37;4.60;;;1.20;;
51578;SDS011;47998;53.242;6.386;2022-08-11T18:18:23;3.90;;;1.55;;
51578;SDS011;47998;53.242;6.386;2022-08-11T18:21:08;2.75;;;1.20;;
51578;SDS011;47998;53.242;6.386;2022-08-11T18:23:56;3.17;;;1.17;;
51578;SDS011;47998;53.242;6.386;2022-08-11T18:26:47;9.60;;;1.50;;
51578;SDS011;47998;53.242;6.386;2022-08-11T18:29:33;8.65;;;1.50;;
51578;SDS011;47998;53.242;6.386;2022-08-11T18:32:22;7.07;;;1.10;;
51578;SDS011;47998;53.242;6.386;2022-08-11T18:35:08;6.57;;;4.00;;
51578;SDS011;47998;53.242;6.386;2022-08-11T18:37:53;4.35;;;1.48;;
51578;SDS011;47998;53.242;6.386;2022-08-11T18:40:40;5.88;;;1.35;;
51578;SDS011;47998;53.242;6.386;2022-08-11T18:43:27;4.30;;;1.17;;
51578;SDS011;47998;53.242;6.386;2022-08-11T18:46:17;3.45;;;1.45;;
51578;SDS011;47998;53.242;6.386;2022-08-11T18:49:08;3.97;;;1.42;;
51578;SDS011;47998;53.242;6.386;2022-08-11T18:51:54;5.43;;;2.05;;
51578;SDS011;47998;53.242;6.386;2022-08-11T18:54:41;5.82;;;1.83;;
51578;SDS011;47998;53.242;6.386;2022-08-11T18:57:27;3.53;;;1.33;;
51578;SDS011;47998;53.242;6.386;2022-08-11T19:00:12;4.65;;;1.38;;
51578;SDS011;47998;53.242;6.386;2022-08-11T19:02:57;3.90;;;1.42;;
51578;SDS011;47998;53.242;6.386;2022-08-11T19:05:43;3.10;;;1.42;;
51578;SDS011;47998;53.242;6.386;2022-08-11T19:08:30;5.13;;;2.08;;
51578;SDS011;47998;53.242;6.386;2022-08-11T19:11:20;2.03;;;1.38;;
51578;SDS011;47998;53.242;6.386;2022-08-11T19:14:05;3.95;;;1.65;;
51578;SDS011;47998;53.242;6.386;2022-08-11T19:16:51;4.75;;;1.67;;
51578;SDS011;47998;53.242;6.386;2022-08-11T19:19:36;9.00;;;1.95;;
51578;SDS011;47998;53.242;6.386;2022-08-11T19:22:23;6.85;;;2.13;;